PWSweather.com
Personal Weather Stations
Station Observations
MIKESPOST
YorkGB

YorkGB

Lat: 53.9577018, Lon: -1.0822855

Elevation: 0

Station Type: WH1081

High Low Average
Temperature 91.0°F32.8°F 45.0°F7.2°F 65.7°F18.7°F
Dew Point 66.7°F19.3°F 38.8°F3.8°F 51.7°F10.9°F
Winds 24.6 mph SE39.6 mph SE Calm Calm 2.6 mph 4.2 mph
Wind Gusts 24.6 mph39.6 mph -- 2.6 mph4.2 mph
Humidity 98% 21% 65%
Pressure 30.05 in1017.60 in 29.48 in998.30 in -
Precipitation 2.24 in56.90 in - -
Hour Temp Dew Point Humidity Winds Wind Gusts Pressure Precip Precip Rate Daily Precip Total
08:28 AM 46.2°F7.9°C 42.0°F5.6°C 85% Calm Calm -- 29.54 in1000.3 mb 0.00 in0.0 mm 0.00 in0.0 mm 0.00 in0.0 mm
08:29 AM 66.7°F19.3°C 44.7°F7.1°C 45% Calm Calm -- 29.49 in998.6 mb 0.00 in0.0 mm 0.00 in0.0 mm 0.00 in0.0 mm
08:30 AM 51.6°F10.9°C 46.9°F8.3°C 84% Calm Calm -- 29.72 in1006.4 mb 0.00 in0.0 mm 0.00 in0.0 mm 0.00 in0.0 mm
08:31 AM 62.6°F17.0°C 46.2°F7.9°C 55% 1.7 mph NE2.7 kmh NE 1.7 mph2.7 kmh 29.81 in1009.5 mb 0.00 in0.0 mm 0.00 in0.0 mm 0.00 in0.0 mm
08:32 AM 63.1°F17.3°C 52.8°F11.6°C 69% 1.7 mph E2.7 kmh E 1.7 mph2.7 kmh 29.82 in1009.8 mb 0.00 in0.0 mm 0.00 in0.0 mm 0.00 in0.0 mm
08:33 AM 55.4°F13.0°C 49.7°F9.8°C 81% Calm Calm -- 29.85 in1010.8 mb 0.00 in0.0 mm 0.00 in0.0 mm 0.00 in0.0 mm
08:34 AM 77.7°F25.4°C 53.4°F11.9°C 43% Calm Calm -- 29.85 in1010.8 mb 0.00 in0.0 mm 0.00 in0.0 mm 0.00 in0.0 mm
08:35 AM 59.2°F15.1°C 56.2°F13.4°C 90% Calm Calm -- 29.71 in1006.1 mb 0.00 in0.0 mm 0.00 in0.0 mm 0.00 in0.0 mm
08:36 AM 62.2°F16.8°C 58.6°F14.8°C 88% Calm Calm -- 29.64 in1003.7 mb 0.00 in0.0 mm 0.00 in0.0 mm 0.08 in2.0 mm
08:37 AM 81.1°F27.3°C 47.6°F8.7°C 31% 5.6 mph NE9.0 kmh NE 5.6 mph9.0 kmh 29.79 in1008.8 mb 0.00 in0.0 mm 0.00 in0.0 mm 0.01 in0.3 mm
08:38 AM 58.3°F14.6°C 51.1°F10.6°C 77% 1.7 mph ESE2.7 kmh ESE 1.7 mph2.7 kmh 29.78 in1008.5 mb 0.00 in0.0 mm 0.00 in0.0 mm 0.00 in0.0 mm
08:39 AM 70.0°F21.1°C 49.4°F9.7°C 48% Calm Calm -- 29.71 in1006.1 mb 0.00 in0.0 mm 0.00 in0.0 mm 0.01 in0.3 mm
08:40 AM 74.1°F23.4°C 52.6°F11.4°C 47% 7.8 mph SE12.6 kmh SE 7.8 mph12.6 kmh 29.87 in1011.5 mb 0.00 in0.0 mm 0.00 in0.0 mm 0.00 in0.0 mm
08:41 AM 61.7°F16.5°C 51.0°F10.6°C 68% Calm Calm -- 29.88 in1011.9 mb 0.00 in0.0 mm 0.00 in0.0 mm 0.00 in0.0 mm
08:42 AM 87.3°F30.7°C 50.2°F10.1°C 28% 1.7 mph NE2.7 kmh NE 1.7 mph2.7 kmh 29.77 in1008.1 mb 0.00 in0.0 mm 0.00 in0.0 mm 0.00 in0.0 mm
08:43 AM 61.3°F16.3°C 54.4°F12.4°C 78% 1.7 mph S2.7 kmh S 1.7 mph2.7 kmh 29.68 in1005.1 mb 0.00 in0.0 mm 0.00 in0.0 mm 0.00 in0.0 mm
08:44 AM 75.2°F24.0°C 59.4°F15.2°C 58% Calm Calm -- 29.55 in1000.7 mb 0.00 in0.0 mm 0.00 in0.0 mm 0.00 in0.0 mm
08:45 AM 76.6°F24.8°C 58.2°F14.6°C 53% Calm Calm -- 29.73 in1006.8 mb 0.00 in0.0 mm 0.00 in0.0 mm 0.00 in0.0 mm
08:46 AM 50.0°F10.0°C 47.5°F8.6°C 91% Calm Calm -- 29.99 in1015.6 mb 0.00 in0.0 mm 0.00 in0.0 mm 0.00 in0.0 mm
08:47 AM 71.1°F21.7°C 44.2°F6.8°C 38% 11.2 mph SE18.0 kmh SE 11.2 mph18.0 kmh 29.96 in1014.6 mb 0.00 in0.0 mm 0.00 in0.0 mm 0.01 in0.3 mm
09:00 AM 62.6°F17.0°C 61.5°F16.4°C 96% 3.2 mph SE5.1 kmh SE 11.2 mph18.0 kmh 29.70 in1005.8 mb 0.00 in0.0 mm 0.00 in0.0 mm 0.40 in10.2 mm
09:20 AM 63.9°F17.7°C 63.0°F17.2°C 97% 3.4 mph S5.5 kmh S 9.5 mph15.3 kmh 29.70 in1005.8 mb 0.00 in0.0 mm 0.00 in0.0 mm 0.40 in10.2 mm
09:40 AM 64.0°F17.8°C 62.9°F17.2°C 96% 3.0 mph SSE4.8 kmh SSE 13.4 mph21.6 kmh 29.70 in1005.8 mb 0.00 in0.0 mm 0.00 in0.0 mm 0.40 in10.2 mm
10:00 AM 65.5°F18.6°C 63.7°F17.6°C 94% 5.9 mph S9.5 kmh S 11.2 mph18.0 kmh 29.70 in1005.8 mb 0.00 in0.0 mm 0.00 in0.0 mm 0.40 in10.2 mm
10:20 AM 66.4°F19.1°C 63.7°F17.6°C 91% 4.0 mph S6.4 kmh S 7.8 mph12.6 kmh 29.70 in1005.8 mb 0.00 in0.0 mm 0.00 in0.0 mm 0.40 in10.2 mm
10:40 AM 67.6°F19.8°C 64.9°F18.3°C 91% 5.3 mph SE8.5 kmh SE 11.2 mph18.0 kmh 29.71 in1006.1 mb 0.00 in0.0 mm 0.00 in0.0 mm 0.40 in10.2 mm
11:00 AM 69.4°F20.8°C 65.4°F18.6°C 87% 5.9 mph SE9.5 kmh SE 11.2 mph18.0 kmh 29.70 in1005.8 mb 0.00 in0.0 mm 0.00 in0.0 mm 0.40 in10.2 mm
11:20 AM 71.4°F21.9°C 65.7°F18.7°C 82% 2.8 mph SE4.5 kmh SE 7.8 mph12.6 kmh 29.71 in1006.1 mb 0.00 in0.0 mm 0.00 in0.0 mm 0.40 in10.2 mm
11:40 AM 77.2°F25.1°C 66.7°F19.3°C 70% 2.6 mph SSE4.2 kmh SSE 7.8 mph12.6 kmh 29.71 in1006.1 mb 0.00 in0.0 mm 0.00 in0.0 mm 0.40 in10.2 mm
12:00 PM 77.7°F25.4°C 66.4°F19.1°C 68% 1.0 mph SE1.6 kmh SE 5.6 mph9.0 kmh 29.71 in1006.1 mb 0.00 in0.0 mm 0.00 in0.0 mm 0.40 in10.2 mm
12:20 PM 80.2°F26.8°C 65.1°F18.4°C 60% 2.9 mph SSE4.7 kmh SSE 5.6 mph9.0 kmh 29.70 in1005.8 mb 0.00 in0.0 mm 0.00 in0.0 mm 0.40 in10.2 mm
12:40 PM 78.4°F25.8°C 64.4°F18.0°C 62% 3.6 mph SSE5.8 kmh SSE 11.2 mph18.0 kmh 29.70 in1005.8 mb 0.00 in0.0 mm 0.00 in0.0 mm 0.40 in10.2 mm
01:00 PM 81.3°F27.4°C 64.7°F18.2°C 57% 4.8 mph E7.7 kmh E 15.1 mph24.3 kmh 29.70 in1005.8 mb 0.00 in0.0 mm 0.00 in0.0 mm 0.40 in10.2 mm
01:20 PM 81.9°F27.7°C 62.0°F16.7°C 51% 10.0 mph E16.1 kmh E 13.4 mph21.6 kmh 29.70 in1005.8 mb 0.00 in0.0 mm 0.00 in0.0 mm 0.40 in10.2 mm
01:40 PM 80.8°F27.1°C 57.5°F14.2°C 45% 11.2 mph E18.0 kmh E 17.3 mph27.8 kmh 29.70 in1005.8 mb 0.00 in0.0 mm 0.00 in0.0 mm 0.40 in10.2 mm
02:00 PM 82.9°F28.3°C 54.8°F12.7°C 38% 12.7 mph E20.4 kmh E 17.3 mph27.8 kmh 29.70 in1005.8 mb 0.00 in0.0 mm 0.00 in0.0 mm 0.40 in10.2 mm
02:20 PM 84.7°F29.3°C 54.1°F12.3°C 35% 7.8 mph ESE12.6 kmh ESE 19.0 mph30.6 kmh 29.71 in1006.1 mb 0.00 in0.0 mm 0.00 in0.0 mm 0.40 in10.2 mm
02:40 PM 84.6°F29.2°C 53.9°F12.2°C 35% 7.7 mph E12.4 kmh E 13.4 mph21.6 kmh 29.71 in1006.1 mb 0.00 in0.0 mm 0.00 in0.0 mm 0.40 in10.2 mm